createdAt,value
2023-01-17T00:02:28.574Z,5.90
2023-01-17T00:05:11.900Z,6.30
2023-01-17T00:07:55.187Z,7.07
2023-01-17T00:10:28.489Z,7.20
2023-01-17T00:13:01.455Z,7.10
2023-01-17T00:15:33.961Z,6.63
2023-01-17T00:18:08.824Z,5.90
2023-01-17T00:20:52.036Z,5.90
2023-01-17T00:23:40.350Z,6.00
2023-01-17T00:26:15.411Z,6.17
2023-01-17T00:28:44.209Z,5.60
2023-01-17T00:31:14.720Z,6.20
2023-01-17T00:33:45.418Z,6.07
2023-01-17T00:36:13.809Z,5.63
2023-01-17T00:38:41.794Z,5.23
2023-01-17T00:41:11.699Z,5.70
2023-01-17T00:43:55.463Z,5.50
2023-01-17T00:46:38.779Z,6.20
2023-01-17T00:49:24.794Z,5.80
2023-01-17T00:52:08.168Z,6.03
2023-01-17T00:54:57.501Z,5.40
2023-01-17T00:57:40.727Z,4.50
2023-01-17T01:00:25.506Z,4.40
2023-01-17T01:03:08.702Z,4.13
2023-01-17T01:05:54.989Z,4.50
2023-01-17T01:08:40.476Z,4.13
2023-01-17T01:11:25.467Z,4.37
2023-01-17T01:14:09.024Z,4.10
2023-01-17T01:16:52.490Z,4.03
2023-01-17T01:19:35.956Z,4.67
2023-01-17T01:22:21.839Z,4.43
2023-01-17T01:25:05.123Z,3.77
2023-01-17T01:27:48.556Z,4.20
2023-01-17T01:30:32.190Z,4.07
2023-01-17T01:33:18.842Z,3.60
2023-01-17T01:35:52.146Z,3.80
2023-01-17T01:38:27.363Z,4.03
2023-01-17T01:40:59.504Z,4.73
2023-01-17T01:43:47.725Z,4.30
2023-01-17T01:46:22.735Z,3.93
2023-01-17T01:48:57.305Z,4.27
2023-01-17T01:51:32.271Z,4.27
2023-01-17T01:54:10.160Z,4.03
2023-01-17T01:56:42.114Z,3.57
2023-01-17T01:59:16.548Z,3.63
2023-01-17T02:01:47.503Z,3.30
2023-01-17T02:04:18.436Z,3.47
2023-01-17T02:06:52.086Z,4.00
2023-01-17T02:09:26.378Z,3.50
2023-01-17T02:11:57.370Z,3.13
2023-01-17T02:14:28.702Z,3.87
2023-01-17T02:17:12.817Z,3.87
2023-01-17T02:20:19.310Z,4.03
2023-01-17T02:23:22.954Z,3.97
2023-01-17T02:26:23.677Z,3.87
2023-01-17T02:29:16.829Z,2.43
2023-01-17T02:31:54.484Z,2.90
2023-01-17T02:34:31.432Z,2.40
2023-01-17T02:37:08.775Z,2.10
2023-01-17T02:39:49.046Z,2.00
2023-01-17T02:42:26.484Z,2.40
2023-01-17T02:44:57.427Z,2.40
2023-01-17T02:47:32.528Z,2.17
2023-01-17T02:50:10.052Z,2.80
2023-01-17T02:52:57.081Z,2.43
2023-01-17T02:55:43.358Z,3.20
2023-01-17T02:58:35.084Z,3.28
2023-01-17T03:01:17.400Z,2.70
2023-01-17T03:03:57.845Z,2.00
2023-01-17T03:06:33.992Z,1.80
2023-01-17T03:09:06.897Z,2.30
2023-01-17T03:11:40.851Z,1.70
2023-01-17T03:14:27.183Z,1.20
2023-01-17T03:16:59.955Z,1.10
2023-01-17T03:19:36.451Z,1.30
2023-01-17T03:22:15.734Z,1.10
2023-01-17T03:24:57.939Z,0.95
2023-01-17T03:27:42.101Z,0.85
2023-01-17T03:30:14.476Z,0.80
2023-01-17T03:35:36.186Z,0.93
2023-01-17T03:38:07.723Z,1.05
2023-01-17T03:40:43.519Z,1.70
2023-01-17T03:43:17.323Z,1.83
2023-01-17T03:45:54.595Z,2.28
2023-01-17T03:48:28.586Z,2.13
2023-01-17T03:51:04.194Z,2.60
2023-01-17T03:53:35.059Z,3.05
2023-01-17T03:56:06.230Z,3.20
2023-01-17T03:58:36.998Z,3.47
2023-01-17T04:01:08.169Z,3.80
2023-01-17T04:03:38.967Z,3.33
2023-01-17T04:06:12.671Z,3.20
2023-01-17T04:08:43.625Z,4.70
2023-01-17T04:11:14.366Z,4.10
2023-01-17T04:13:45.103Z,4.50
2023-01-17T04:16:19.812Z,4.32
2023-01-17T04:18:52.591Z,4.35
2023-01-17T04:21:26.517Z,4.05
2023-01-17T04:23:57.235Z,4.20
2023-01-17T04:26:27.946Z,4.30
2023-01-17T04:28:58.963Z,3.67
2023-01-17T04:31:41.725Z,3.97
2023-01-17T04:34:12.672Z,3.90
2023-01-17T04:36:49.708Z,3.45
2023-01-17T04:39:20.457Z,3.10
2023-01-17T04:41:53.790Z,2.88
2023-01-17T04:44:24.519Z,3.38
2023-01-17T04:46:55.265Z,2.92
2023-01-17T04:49:26.262Z,3.60
2023-01-17T04:51:59.590Z,3.60
2023-01-17T04:54:33.560Z,3.67
2023-01-17T04:57:04.301Z,3.60
2023-01-17T04:59:35.439Z,3.38
2023-01-17T05:02:06.507Z,3.17
2023-01-17T05:04:37.420Z,3.40
2023-01-17T05:07:10.914Z,3.58
2023-01-17T05:09:41.722Z,3.55
2023-01-17T05:12:15.572Z,3.92
2023-01-17T05:14:46.303Z,3.45
2023-01-17T05:17:17.001Z,4.40
2023-01-17T05:19:48.557Z,4.80
2023-01-17T05:22:21.850Z,4.20
2023-01-17T05:24:52.712Z,5.00
2023-01-17T05:27:23.535Z,5.90
2023-01-17T05:29:54.921Z,7.80
2023-01-17T05:32:25.813Z,7.32
2023-01-17T05:34:59.628Z,7.82
2023-01-17T05:37:36.234Z,7.22
2023-01-17T05:40:09.699Z,8.07
2023-01-17T05:42:40.417Z,8.50
2023-01-17T05:45:16.776Z,8.68
2023-01-17T05:47:48.018Z,9.35
2023-01-17T05:50:21.057Z,8.13
2023-01-17T05:52:56.067Z,8.88
2023-01-17T05:55:28.197Z,8.40
2023-01-17T05:57:59.366Z,7.95
2023-01-17T06:00:30.615Z,8.57
2023-01-17T06:03:02.786Z,7.10
2023-01-17T06:05:34.295Z,7.10
2023-01-17T06:08:11.599Z,8.20
2023-01-17T06:10:42.746Z,7.80
2023-01-17T06:13:20.827Z,7.95
2023-01-17T06:15:51.933Z,7.75
2023-01-17T06:18:23.146Z,7.78
2023-01-17T06:20:56.011Z,8.70
2023-01-17T06:23:29.626Z,6.90
2023-01-17T06:26:00.370Z,6.93
2023-01-17T06:28:31.127Z,6.25
2023-01-17T06:31:02.567Z,7.30
2023-01-17T06:33:33.378Z,7.20
2023-01-17T06:36:04.410Z,6.28
2023-01-17T06:38:37.718Z,6.75
2023-01-17T06:41:09.734Z,5.80
2023-01-17T06:43:40.408Z,6.10
2023-01-17T06:46:11.252Z,6.30
2023-01-17T06:48:43.610Z,5.87
2023-01-17T06:51:14.370Z,5.67
2023-01-17T06:53:47.781Z,6.65
2023-01-17T06:56:18.826Z,6.57
2023-01-17T06:58:52.356Z,5.87
2023-01-17T07:01:23.178Z,7.28
2023-01-17T07:03:57.345Z,8.02
2023-01-17T07:06:28.945Z,7.63
2023-01-17T07:09:03.539Z,7.68
2023-01-17T07:11:34.558Z,8.10
2023-01-17T07:14:05.347Z,7.80
2023-01-17T07:16:37.016Z,8.67
2023-01-17T07:19:08.016Z,8.15
2023-01-17T07:21:38.696Z,8.95
2023-01-17T07:24:12.721Z,9.23
2023-01-17T07:26:43.762Z,8.50
2023-01-17T07:29:14.571Z,10.10
2023-01-17T07:31:45.354Z,9.10
2023-01-17T07:34:17.077Z,8.77
2023-01-17T07:36:49.698Z,9.07
2023-01-17T07:39:23.043Z,9.27
2023-01-17T07:41:53.833Z,8.88
2023-01-17T07:44:24.581Z,9.60
2023-01-17T07:46:58.933Z,10.52
2023-01-17T07:49:29.973Z,10.05
2023-01-17T07:52:00.681Z,10.48
2023-01-17T07:58:11.258Z,11.05
2023-01-17T08:00:44.079Z,11.95
2023-01-17T08:03:17.488Z,10.63
2023-01-17T08:05:57.731Z,9.98
2023-01-17T08:08:28.597Z,12.13
2023-01-17T08:10:59.887Z,11.53
2023-01-17T08:13:36.277Z,10.38
2023-01-17T08:16:07.957Z,10.47
2023-01-17T08:18:38.672Z,10.18
2023-01-17T08:21:16.818Z,9.77
2023-01-17T08:23:50.667Z,10.37
2023-01-17T08:26:23.990Z,9.98
2023-01-17T08:29:02.532Z,10.35
2023-01-17T08:31:35.060Z,10.60
2023-01-17T08:34:13.395Z,9.90
2023-01-17T08:36:45.413Z,9.38
2023-01-17T08:39:16.433Z,9.68
2023-01-17T08:41:47.248Z,10.07
2023-01-17T08:44:23.368Z,9.80
2023-01-17T08:46:57.787Z,11.00
2023-01-17T08:49:28.584Z,9.55
2023-01-17T08:51:59.653Z,11.40
2023-01-17T08:54:30.734Z,10.53
2023-01-17T08:57:03.378Z,11.00
2023-01-17T08:59:36.807Z,11.40
2023-01-17T09:02:15.031Z,12.00
2023-01-17T09:04:47.169Z,11.85
2023-01-17T09:07:18.827Z,12.07
2023-01-17T09:09:50.007Z,11.80
2023-01-17T09:12:23.451Z,11.57
2023-01-17T09:14:57.033Z,13.18
2023-01-17T09:17:27.832Z,11.40
2023-01-17T09:19:59.514Z,13.27
2023-01-17T09:22:33.811Z,10.87
2023-01-17T09:25:05.007Z,13.75
2023-01-17T09:27:39.745Z,12.90
2023-01-17T09:30:14.479Z,12.40
2023-01-17T09:32:45.324Z,14.40
2023-01-17T09:35:19.755Z,12.48
2023-01-17T09:37:57.130Z,13.47
2023-01-17T09:40:28.625Z,14.57
2023-01-17T09:43:03.710Z,12.57
2023-01-17T09:45:37.615Z,13.73
2023-01-17T09:48:17.807Z,13.70
2023-01-17T09:50:54.929Z,12.37
2023-01-17T09:53:25.933Z,13.30
2023-01-17T09:56:04.299Z,11.33
2023-01-17T09:58:42.769Z,12.30
2023-01-17T10:01:21.918Z,11.98
2023-01-17T10:04:13.799Z,10.63
2023-01-17T10:06:54.597Z,10.73
2023-01-17T10:09:48.752Z,10.13
2023-01-17T10:12:52.192Z,10.00
2023-01-17T10:15:37.450Z,9.00
2023-01-17T10:18:30.393Z,9.17
2023-01-17T10:21:07.904Z,9.87
2023-01-17T10:24:03.640Z,11.27
2023-01-17T10:26:36.703Z,9.50
2023-01-17T10:29:20.005Z,9.80
2023-01-17T10:31:58.136Z,8.53
2023-01-17T10:34:37.351Z,9.70
2023-01-17T10:37:19.694Z,10.20
2023-01-17T10:39:52.847Z,9.30
2023-01-17T10:42:29.705Z,10.30
2023-01-17T10:45:08.324Z,10.70
2023-01-17T10:47:44.617Z,10.60
2023-01-17T10:50:18.487Z,11.73
2023-01-17T10:52:59.022Z,11.20
2023-01-17T10:55:40.056Z,10.50
2023-01-17T10:58:14.686Z,11.47
2023-01-17T11:00:51.345Z,11.00
2023-01-17T11:03:23.907Z,11.97
2023-01-17T11:06:25.828Z,11.20
2023-01-17T11:09:02.079Z,12.63
2023-01-17T11:11:38.070Z,10.90
2023-01-17T11:14:24.145Z,10.90
2023-01-17T11:17:03.698Z,10.53
2023-01-17T11:19:37.348Z,9.93
2023-01-17T11:22:16.847Z,9.20
2023-01-17T11:24:53.897Z,9.97
2023-01-17T11:27:29.112Z,9.50
2023-01-17T11:30:18.835Z,9.17
2023-01-17T11:32:55.479Z,9.20
2023-01-17T11:35:31.676Z,8.67
2023-01-17T11:38:09.707Z,7.83
2023-01-17T11:40:43.160Z,8.60
2023-01-17T11:43:33.088Z,8.67
2023-01-17T11:46:08.367Z,8.50
2023-01-17T11:48:40.955Z,7.80
2023-01-17T11:51:27.418Z,7.77
2023-01-17T11:54:14.820Z,8.80
2023-01-17T11:56:46.473Z,7.63
2023-01-17T11:59:30.045Z,8.07
2023-01-17T12:02:33.631Z,8.47
2023-01-17T12:05:21.228Z,8.80
2023-01-17T12:08:00.793Z,8.60
2023-01-17T12:10:39.787Z,7.60
2023-01-17T12:13:34.042Z,7.60
2023-01-17T12:16:31.794Z,7.20
2023-01-17T12:19:15.488Z,6.80
2023-01-17T12:21:56.007Z,6.67
2023-01-17T12:25:04.528Z,7.13
2023-01-17T12:27:49.580Z,6.73
2023-01-17T12:30:39.198Z,7.77
2023-01-17T12:33:22.520Z,6.40
2023-01-17T12:35:56.304Z,7.10
2023-01-17T12:38:33.699Z,6.73
2023-01-17T12:41:10.267Z,6.17
2023-01-17T12:43:46.410Z,5.90
2023-01-17T12:46:23.932Z,5.67
2023-01-17T12:48:59.274Z,5.77
2023-01-17T12:51:35.332Z,5.63
2023-01-17T12:54:16.320Z,6.73
2023-01-17T12:56:51.449Z,6.40
2023-01-17T12:59:31.878Z,6.80
2023-01-17T13:02:15.042Z,6.80
2023-01-17T13:04:58.490Z,5.80
2023-01-17T13:07:40.522Z,6.50
2023-01-17T13:10:30.988Z,6.63
2023-01-17T13:13:07.664Z,6.13
2023-01-17T13:15:44.203Z,5.83
2023-01-17T13:18:22.794Z,4.73
2023-01-17T13:21:13.120Z,6.40
2023-01-17T13:23:59.174Z,6.50
2023-01-17T13:26:43.669Z,7.33
2023-01-17T13:29:23.390Z,5.40
2023-01-17T13:32:08.720Z,5.90
2023-01-17T13:35:09.404Z,10.90
2023-01-17T13:38:09.156Z,8.00
2023-01-17T13:40:48.670Z,5.77
2023-01-17T13:43:25.693Z,5.30
2023-01-17T13:45:59.441Z,4.20
2023-01-17T13:48:37.565Z,4.93
2023-01-17T13:51:09.135Z,4.40
2023-01-17T13:54:02.784Z,5.90
2023-01-17T13:56:39.821Z,4.63
2023-01-17T13:59:30.724Z,4.30
2023-01-17T14:02:01.849Z,4.33
2023-01-17T14:05:02.726Z,6.00
2023-01-17T14:07:38.001Z,4.30
2023-01-17T14:10:40.857Z,4.77
2023-01-17T14:13:34.182Z,4.63
2023-01-17T14:16:06.715Z,4.03
2023-01-17T14:18:42.748Z,5.20
2023-01-17T14:21:20.700Z,5.80
2023-01-17T14:24:03.871Z,4.20
2023-01-17T14:26:44.729Z,3.80
2023-01-17T14:29:45.600Z,3.67
2023-01-17T14:32:18.228Z,4.23
2023-01-17T14:34:51.121Z,3.97
2023-01-17T14:37:40.666Z,3.80
2023-01-17T14:40:28.689Z,4.30
2023-01-17T14:43:04.261Z,4.53
2023-01-17T14:45:37.277Z,4.93
2023-01-17T14:48:10.379Z,4.60
2023-01-17T14:50:42.815Z,4.03
2023-01-17T14:53:22.259Z,3.53
2023-01-17T14:55:58.123Z,3.80
2023-01-17T14:58:31.126Z,3.50
2023-01-17T15:01:04.770Z,3.53
2023-01-17T15:03:45.688Z,4.20
2023-01-17T15:06:22.452Z,3.87
2023-01-17T15:08:54.618Z,4.00
2023-01-17T15:11:33.257Z,4.30
2023-01-17T15:14:09.096Z,4.23
2023-01-17T15:16:41.339Z,4.17
2023-01-17T15:19:16.996Z,4.50
2023-01-17T15:21:50.665Z,4.40
2023-01-17T15:24:24.768Z,5.20
2023-01-17T15:26:58.521Z,4.40
2023-01-17T15:29:32.134Z,4.73
2023-01-17T15:32:08.462Z,5.47
2023-01-17T15:34:41.555Z,6.30
2023-01-17T15:37:29.169Z,6.30
2023-01-17T15:40:09.119Z,7.50
2023-01-17T15:42:47.571Z,6.43
2023-01-17T15:45:22.572Z,5.97
2023-01-17T15:47:53.706Z,7.17
2023-01-17T15:50:36.468Z,7.97
2023-01-17T15:53:12.080Z,7.53
2023-01-17T15:55:50.984Z,7.97
2023-01-17T15:58:31.707Z,7.60
2023-01-17T16:01:02.858Z,7.70
2023-01-17T16:03:33.963Z,7.67
2023-01-17T16:06:05.442Z,7.40
2023-01-17T16:08:40.420Z,8.50
2023-01-17T16:11:15.774Z,7.13
2023-01-17T16:13:49.412Z,7.67
2023-01-17T16:16:23.653Z,7.85
2023-01-17T16:19:02.769Z,9.33
2023-01-17T16:21:34.346Z,9.25
2023-01-17T16:24:07.303Z,9.50
2023-01-17T16:26:38.022Z,10.05
2023-01-17T16:29:13.487Z,9.95
2023-01-17T16:31:44.181Z,10.18
2023-01-17T16:34:15.194Z,10.50
2023-01-17T16:36:46.096Z,9.23
2023-01-17T16:39:17.920Z,9.82
2023-01-17T16:41:48.662Z,10.00
2023-01-17T16:44:21.995Z,9.45
2023-01-17T16:46:52.926Z,11.73
2023-01-17T16:49:24.089Z,11.50
2023-01-17T16:51:54.777Z,11.45
2023-01-17T16:54:25.656Z,11.55
2023-01-17T16:56:56.555Z,10.68
2023-01-17T16:59:42.335Z,10.35
2023-01-17T17:02:23.651Z,9.75
2023-01-17T17:04:54.468Z,9.80
2023-01-17T17:07:25.371Z,10.05
2023-01-17T17:09:56.061Z,10.05
2023-01-17T17:12:26.796Z,10.05
2023-01-17T17:15:00.480Z,9.50
2023-01-17T17:17:31.975Z,10.45
2023-01-17T17:20:02.675Z,11.77
2023-01-17T17:22:33.387Z,10.20
2023-01-17T17:25:05.279Z,11.15
2023-01-17T17:27:39.361Z,11.07
2023-01-17T17:30:15.614Z,10.95
2023-01-17T17:32:49.115Z,11.35
2023-01-17T17:35:20.109Z,11.88
2023-01-17T17:37:51.033Z,11.35
2023-01-17T17:40:22.365Z,10.57
2023-01-17T17:42:53.122Z,11.10
2023-01-17T17:45:26.583Z,10.50
2023-01-17T17:47:57.823Z,11.68
2023-01-17T17:50:28.956Z,13.48
2023-01-17T17:52:59.647Z,12.27
2023-01-17T17:55:30.612Z,13.70
2023-01-17T17:58:02.132Z,14.55
2023-01-17T18:00:35.570Z,16.17
2023-01-17T18:03:06.802Z,16.95
2023-01-17T18:05:39.095Z,17.27
2023-01-17T18:08:10.879Z,17.80
2023-01-17T18:10:42.579Z,18.27
2023-01-17T18:13:13.348Z,17.90
2023-01-17T18:15:46.909Z,19.30
2023-01-17T18:18:17.805Z,19.35
2023-01-17T18:20:48.525Z,19.45
2023-01-17T18:23:19.255Z,18.20
2023-01-17T18:25:50.357Z,17.88
2023-01-17T18:28:21.161Z,17.25
2023-01-17T18:30:55.696Z,16.10
2023-01-17T18:33:27.861Z,14.85
2023-01-17T18:36:00.210Z,14.50
2023-01-17T18:38:38.425Z,13.60
2023-01-17T18:41:10.771Z,14.52
2023-01-17T18:43:42.016Z,14.65
2023-01-17T18:46:15.654Z,16.58
2023-01-17T18:48:46.999Z,14.70
2023-01-17T18:51:20.407Z,15.70
2023-01-17T18:53:53.011Z,15.52
2023-01-17T18:56:25.236Z,16.35
2023-01-17T18:58:56.152Z,16.30
2023-01-17T19:01:35.229Z,16.95
2023-01-17T19:04:08.139Z,17.52
2023-01-17T19:06:41.532Z,18.50
2023-01-17T19:09:14.949Z,20.35
2023-01-17T19:11:47.572Z,19.98
2023-01-17T19:14:18.890Z,21.23
2023-01-17T19:16:52.194Z,22.25
2023-01-17T19:19:23.117Z,21.23
2023-01-17T19:21:54.389Z,19.95
2023-01-17T19:24:25.148Z,19.25
2023-01-17T19:26:56.499Z,20.45
2023-01-17T19:29:27.288Z,19.30
2023-01-17T19:32:00.699Z,20.38
2023-01-17T19:34:31.395Z,20.05
2023-01-17T19:37:02.975Z,19.20
2023-01-17T19:39:33.879Z,20.08
2023-01-17T19:42:04.733Z,18.52
2023-01-17T19:44:37.726Z,18.27
2023-01-17T19:47:12.162Z,18.70
2023-01-17T19:49:44.403Z,19.90
2023-01-17T19:52:15.357Z,20.95
2023-01-17T19:54:46.142Z,25.00
2023-01-17T19:57:20.707Z,23.35
2023-01-17T19:59:51.811Z,22.20
2023-01-17T20:02:27.587Z,23.48
2023-01-17T20:04:59.291Z,23.67
2023-01-17T20:07:31.292Z,22.08
2023-01-17T20:10:02.091Z,21.67
2023-01-17T20:12:33.780Z,21.92
2023-01-17T20:15:06.246Z,21.65
2023-01-17T20:17:39.819Z,21.27
2023-01-17T20:20:12.819Z,19.92
2023-01-17T20:22:44.778Z,18.95
2023-01-17T20:25:15.662Z,19.15
2023-01-17T20:27:46.436Z,19.08
2023-01-17T20:30:20.425Z,18.92
2023-01-17T20:32:55.610Z,18.70
2023-01-17T20:35:28.601Z,21.25
2023-01-17T20:37:59.709Z,19.75
2023-01-17T20:40:33.416Z,17.88
2023-01-17T20:43:04.252Z,19.27
2023-01-17T20:45:35.421Z,19.88
2023-01-17T20:48:09.054Z,19.50
2023-01-17T20:50:39.974Z,18.95
2023-01-17T20:53:10.754Z,18.50
2023-01-17T20:55:41.692Z,19.15
2023-01-17T20:58:12.427Z,17.38
2023-01-17T21:00:43.224Z,18.75
2023-01-17T21:03:16.626Z,17.00
2023-01-17T21:05:47.331Z,16.67
2023-01-17T21:08:22.192Z,17.02
2023-01-17T21:10:53.035Z,18.08
2023-01-17T21:13:23.834Z,16.98
2023-01-17T21:15:54.839Z,17.08
2023-01-17T21:18:31.627Z,18.35
2023-01-17T21:21:08.008Z,19.05
2023-01-17T21:23:38.897Z,18.52
2023-01-17T21:26:10.952Z,19.50
2023-01-17T21:28:45.729Z,20.42
2023-01-17T21:31:23.117Z,19.85
2023-01-17T21:34:01.001Z,19.83
2023-01-17T21:36:36.475Z,19.77
2023-01-17T21:39:09.688Z,20.92
2023-01-17T21:41:44.639Z,19.90
2023-01-17T21:44:19.414Z,19.92
2023-01-17T21:46:56.450Z,19.55
2023-01-17T21:49:30.024Z,20.33
2023-01-17T21:52:13.244Z,20.60
2023-01-17T21:54:56.501Z,20.27
2023-01-17T21:57:39.918Z,19.95
2023-01-17T22:00:14.918Z,18.80
2023-01-17T22:02:46.182Z,18.33
2023-01-17T22:05:20.644Z,17.98
2023-01-17T22:08:07.217Z,18.17
2023-01-17T22:10:44.645Z,18.73
2023-01-17T22:13:16.820Z,18.23
2023-01-17T22:15:47.775Z,18.45
2023-01-17T22:18:18.522Z,18.42
2023-01-17T22:20:51.871Z,18.85
2023-01-17T22:23:23.086Z,19.35
2023-01-17T22:25:53.824Z,20.23
2023-01-17T22:28:24.534Z,20.77
2023-01-17T22:30:55.427Z,21.40
2023-01-17T22:33:26.285Z,20.98
2023-01-17T22:36:03.092Z,21.70
2023-01-17T22:38:34.202Z,20.42
2023-01-17T22:41:08.083Z,20.80
2023-01-17T22:43:40.672Z,21.30
2023-01-17T22:46:13.549Z,20.15
2023-01-17T22:48:45.198Z,20.73
2023-01-17T22:51:20.703Z,20.92
2023-01-17T22:53:53.283Z,19.90
2023-01-17T22:56:26.464Z,20.77
2023-01-17T22:58:58.236Z,19.98
2023-01-17T23:01:31.534Z,20.63
2023-01-17T23:04:03.843Z,20.38
2023-01-17T23:06:39.216Z,19.80
2023-01-17T23:09:14.202Z,19.85
2023-01-17T23:11:47.438Z,19.08
2023-01-17T23:14:20.912Z,20.05
2023-01-17T23:17:06.385Z,19.77
2023-01-17T23:19:38.939Z,20.55
2023-01-17T23:22:19.630Z,21.52
2023-01-17T23:24:53.274Z,19.63
2023-01-17T23:27:38.797Z,19.95
2023-01-17T23:30:13.391Z,20.20
2023-01-17T23:32:50.538Z,20.98
2023-01-17T23:35:26.948Z,19.83
2023-01-17T23:38:13.597Z,19.00
2023-01-17T23:41:07.690Z,19.13
2023-01-17T23:43:36.906Z,19.77
2023-01-17T23:46:08.252Z,19.27
2023-01-17T23:48:39.340Z,20.13
2023-01-17T23:51:10.590Z,19.02
2023-01-17T23:53:44.019Z,18.25
2023-01-17T23:56:19.105Z,19.15
2023-01-17T23:58:50.348Z,18.38
